sensor_id;sensor_type;location;lat;lon;timestamp;P1;durP1;ratioP1;P2;durP2;ratioP2
23494;SDS011;26107;50.832;2.950;2023-04-15T00:11:38;4.30;;;1.85;;
23494;SDS011;26107;50.832;2.950;2023-04-15T00:26:39;2.90;;;1.63;;
23494;SDS011;26107;50.832;2.950;2023-04-15T00:41:40;1.75;;;1.63;;
23494;SDS011;26107;50.832;2.950;2023-04-15T00:56:40;3.05;;;1.95;;
23494;SDS011;26107;50.832;2.950;2023-04-15T01:11:41;3.03;;;1.52;;
23494;SDS011;26107;50.832;2.950;2023-04-15T01:26:42;2.90;;;1.33;;
23494;SDS011;26107;50.832;2.950;2023-04-15T01:41:43;3.03;;;2.20;;
23494;SDS011;26107;50.832;2.950;2023-04-15T01:56:44;5.40;;;2.50;;
23494;SDS011;26107;50.832;2.950;2023-04-15T02:11:44;3.90;;;2.70;;
23494;SDS011;26107;50.832;2.950;2023-04-15T02:26:45;5.63;;;2.95;;
23494;SDS011;26107;50.832;2.950;2023-04-15T02:41:46;2.47;;;2.25;;
23494;SDS011;26107;50.832;2.950;2023-04-15T02:56:50;2.67;;;2.45;;
23494;SDS011;26107;50.832;2.950;2023-04-15T03:11:54;2.92;;;2.17;;
23494;SDS011;26107;50.832;2.950;2023-04-15T03:26:55;3.90;;;2.05;;
23494;SDS011;26107;50.832;2.950;2023-04-15T03:41:57;7.20;;;3.25;;
23494;SDS011;26107;50.832;2.950;2023-04-15T03:56:58;4.63;;;3.75;;
23494;SDS011;26107;50.832;2.950;2023-04-15T04:11:59;5.90;;;4.28;;
23494;SDS011;26107;50.832;2.950;2023-04-15T04:27:00;8.35;;;6.70;;
23494;SDS011;26107;50.832;2.950;2023-04-15T04:42:01;8.77;;;7.07;;
23494;SDS011;26107;50.832;2.950;2023-04-15T04:57:01;9.57;;;7.95;;
23494;SDS011;26107;50.832;2.950;2023-04-15T05:12:02;5.97;;;5.13;;
23494;SDS011;26107;50.832;2.950;2023-04-15T05:27:03;6.47;;;4.88;;
23494;SDS011;26107;50.832;2.950;2023-04-15T05:42:04;8.27;;;6.60;;
23494;SDS011;26107;50.832;2.950;2023-04-15T05:57:05;8.00;;;7.20;;
23494;SDS011;26107;50.832;2.950;2023-04-15T06:12:06;12.18;;;8.70;;
23494;SDS011;26107;50.832;2.950;2023-04-15T06:27:11;13.98;;;9.80;;
23494;SDS011;26107;50.832;2.950;2023-04-15T06:42:11;11.93;;;9.10;;
23494;SDS011;26107;50.832;2.950;2023-04-15T06:57:12;14.27;;;6.97;;
23494;SDS011;26107;50.832;2.950;2023-04-15T07:12:13;9.68;;;6.13;;
23494;SDS011;26107;50.832;2.950;2023-04-15T07:27:13;7.82;;;5.80;;
23494;SDS011;26107;50.832;2.950;2023-04-15T07:42:14;6.68;;;5.13;;
23494;SDS011;26107;50.832;2.950;2023-04-15T07:57:14;8.63;;;4.93;;
23494;SDS011;26107;50.832;2.950;2023-04-15T08:12:16;12.38;;;7.32;;
23494;SDS011;26107;50.832;2.950;2023-04-15T08:27:17;11.05;;;6.32;;
23494;SDS011;26107;50.832;2.950;2023-04-15T08:42:18;8.95;;;5.60;;
23494;SDS011;26107;50.832;2.950;2023-04-15T08:57:27;6.43;;;4.20;;
23494;SDS011;26107;50.832;2.950;2023-04-15T09:12:28;3.92;;;3.42;;
23494;SDS011;26107;50.832;2.950;2023-04-15T09:27:28;9.23;;;4.75;;
23494;SDS011;26107;50.832;2.950;2023-04-15T09:42:29;10.25;;;6.20;;
23494;SDS011;26107;50.832;2.950;2023-04-15T09:57:32;16.80;;;9.10;;
23494;SDS011;26107;50.832;2.950;2023-04-15T10:12:36;10.98;;;6.78;;
23494;SDS011;26107;50.832;2.950;2023-04-15T10:27:38;13.00;;;6.15;;
23494;SDS011;26107;50.832;2.950;2023-04-15T10:42:41;11.38;;;6.20;;
23494;SDS011;26107;50.832;2.950;2023-04-15T10:57:41;15.02;;;8.40;;
23494;SDS011;26107;50.832;2.950;2023-04-15T11:12:52;16.25;;;9.77;;
23494;SDS011;26107;50.832;2.950;2023-04-15T11:28:01;11.30;;;8.23;;
23494;SDS011;26107;50.832;2.950;2023-04-15T11:43:06;9.90;;;7.50;;
23494;SDS011;26107;50.832;2.950;2023-04-15T11:58:07;12.18;;;6.70;;
23494;SDS011;26107;50.832;2.950;2023-04-15T12:13:15;10.50;;;5.32;;
23494;SDS011;26107;50.832;2.950;2023-04-15T12:28:16;7.80;;;6.55;;
23494;SDS011;26107;50.832;2.950;2023-04-15T12:43:16;7.78;;;5.60;;
23494;SDS011;26107;50.832;2.950;2023-04-15T12:58:17;6.00;;;4.88;;
23494;SDS011;26107;50.832;2.950;2023-04-15T13:13:18;5.07;;;3.92;;
23494;SDS011;26107;50.832;2.950;2023-04-15T13:28:18;12.00;;;6.65;;
23494;SDS011;26107;50.832;2.950;2023-04-15T13:43:19;10.60;;;7.22;;
23494;SDS011;26107;50.832;2.950;2023-04-15T13:58:20;9.77;;;7.10;;
23494;SDS011;26107;50.832;2.950;2023-04-15T14:13:21;9.43;;;7.57;;
23494;SDS011;26107;50.832;2.950;2023-04-15T14:28:23;10.32;;;6.18;;
23494;SDS011;26107;50.832;2.950;2023-04-15T14:43:24;10.50;;;5.65;;
23494;SDS011;26107;50.832;2.950;2023-04-15T14:58:24;9.65;;;5.72;;
23494;SDS011;26107;50.832;2.950;2023-04-15T15:13:25;8.50;;;5.40;;
23494;SDS011;26107;50.832;2.950;2023-04-15T15:28:26;5.60;;;3.42;;
23494;SDS011;26107;50.832;2.950;2023-04-15T15:43:26;3.55;;;1.75;;
23494;SDS011;26107;50.832;2.950;2023-04-15T15:58:27;4.63;;;2.03;;
23494;SDS011;26107;50.832;2.950;2023-04-15T16:13:28;4.53;;;2.08;;
23494;SDS011;26107;50.832;2.950;2023-04-15T16:28:29;6.97;;;1.83;;
23494;SDS011;26107;50.832;2.950;2023-04-15T16:43:30;6.22;;;1.77;;
23494;SDS011;26107;50.832;2.950;2023-04-15T17:13:31;6.95;;;1.60;;
23494;SDS011;26107;50.832;2.950;2023-04-15T17:28:31;5.40;;;1.95;;
23494;SDS011;26107;50.832;2.950;2023-04-15T17:43:32;4.00;;;1.65;;
23494;SDS011;26107;50.832;2.950;2023-04-15T17:58:32;2.40;;;1.83;;
23494;SDS011;26107;50.832;2.950;2023-04-15T18:13:33;4.85;;;2.25;;
23494;SDS011;26107;50.832;2.950;2023-04-15T18:28:34;7.50;;;3.55;;
23494;SDS011;26107;50.832;2.950;2023-04-15T18:43:34;7.47;;;3.03;;
23494;SDS011;26107;50.832;2.950;2023-04-15T18:58:35;8.95;;;3.45;;
23494;SDS011;26107;50.832;2.950;2023-04-15T19:13:37;6.45;;;3.20;;
23494;SDS011;26107;50.832;2.950;2023-04-15T19:28:38;13.25;;;4.20;;
23494;SDS011;26107;50.832;2.950;2023-04-15T19:43:38;9.43;;;4.35;;
23494;SDS011;26107;50.832;2.950;2023-04-15T19:58:39;9.98;;;4.30;;
23494;SDS011;26107;50.832;2.950;2023-04-15T20:13:39;9.43;;;4.47;;
23494;SDS011;26107;50.832;2.950;2023-04-15T20:28:40;12.75;;;6.13;;
23494;SDS011;26107;50.832;2.950;2023-04-15T20:43:41;13.10;;;5.90;;
23494;SDS011;26107;50.832;2.950;2023-04-15T20:58:41;14.65;;;6.40;;
23494;SDS011;26107;50.832;2.950;2023-04-15T21:13:42;13.75;;;6.15;;
23494;SDS011;26107;50.832;2.950;2023-04-15T21:28:45;13.20;;;6.10;;
23494;SDS011;26107;50.832;2.950;2023-04-15T21:43:45;13.25;;;6.57;;
23494;SDS011;26107;50.832;2.950;2023-04-15T21:58:46;12.23;;;6.15;;
23494;SDS011;26107;50.832;2.950;2023-04-15T22:13:46;10.52;;;6.00;;
23494;SDS011;26107;50.832;2.950;2023-04-15T22:28:47;9.52;;;5.40;;
23494;SDS011;26107;50.832;2.950;2023-04-15T22:43:48;7.82;;;4.95;;
23494;SDS011;26107;50.832;2.950;2023-04-15T22:58:49;11.55;;;5.50;;
23494;SDS011;26107;50.832;2.950;2023-04-15T23:13:50;11.15;;;5.45;;
23494;SDS011;26107;50.832;2.950;2023-04-15T23:28:50;8.15;;;5.85;;
23494;SDS011;26107;50.832;2.950;2023-04-15T23:43:51;15.32;;;6.45;;
23494;SDS011;26107;50.832;2.950;2023-04-15T23:58:51;16.67;;;6.65;;
